createdAt,value
2023-04-27T04:02:17.127Z,-86
2023-04-27T04:05:40.682Z,-92
2023-04-27T04:08:57.717Z,-92
2023-04-27T04:12:05.940Z,-92
2023-04-27T04:22:09.433Z,-91
2023-04-27T04:25:23.482Z,-92
2023-04-27T04:28:29.079Z,-91
2023-04-27T04:37:56.126Z,-91
2023-04-27T04:40:24.853Z,-91
2023-04-27T04:42:58.026Z,-91
2023-04-27T04:50:06.569Z,-91
2023-04-27T04:57:52.609Z,-91
2023-04-27T05:25:04.192Z,-91
2023-04-27T05:28:58.021Z,-91
2023-04-27T05:36:00.688Z,-91
2023-04-27T06:12:52.270Z,-91
2023-04-27T06:25:01.500Z,-83
2023-04-27T06:27:29.905Z,-83
2023-04-27T06:29:58.290Z,-82
2023-04-27T06:32:26.882Z,-82
2023-04-27T06:34:56.625Z,-82
2023-04-27T06:37:24.922Z,-82
2023-04-27T06:39:53.331Z,-82
2023-04-27T06:42:21.952Z,-83
2023-04-27T06:44:50.527Z,-83
2023-04-27T06:47:18.838Z,-83
2023-04-27T06:49:49.612Z,-83
2023-04-27T06:52:20.005Z,-83
2023-04-27T06:54:48.556Z,-83
2023-04-27T06:57:16.890Z,-83
2023-04-27T06:59:45.557Z,-83
2023-04-27T07:02:14.286Z,-83
2023-04-27T07:04:43.590Z,-84
2023-04-27T07:07:12.267Z,-84
2023-04-27T07:09:42.111Z,-84
2023-04-27T07:12:10.893Z,-84
2023-04-27T07:14:39.290Z,-83
2023-04-27T07:17:07.526Z,-83
2023-04-27T07:19:36.016Z,-84
2023-04-27T07:22:04.664Z,-83
2023-04-27T07:24:33.268Z,-84
2023-04-27T07:27:04.096Z,-82
2023-04-27T07:29:32.734Z,-83
2023-04-27T07:32:01.415Z,-83
2023-04-27T07:34:41.133Z,-83
2023-04-27T07:37:14.121Z,-82
2023-04-27T07:39:42.512Z,-83
2023-04-27T07:42:12.688Z,-82
2023-04-27T07:44:42.777Z,-82
2023-04-27T07:47:11.239Z,-83
2023-04-27T07:49:40.420Z,-82
2023-04-27T07:52:09.157Z,-82
2023-04-27T07:54:37.492Z,-82
2023-04-27T07:57:11.705Z,-82
2023-04-27T07:59:40.703Z,-82
2023-04-27T08:02:19.301Z,-83
2023-04-27T08:04:49.532Z,-82
2023-04-27T08:07:18.706Z,-82
2023-04-27T08:09:47.822Z,-83
2023-04-27T08:12:17.971Z,-82
2023-04-27T08:14:46.404Z,-81
2023-04-27T08:17:14.525Z,-83
2023-04-27T08:19:43.092Z,-81
2023-04-27T08:22:11.535Z,-82
2023-04-27T08:24:40.231Z,-81
2023-04-27T08:27:09.304Z,-81
2023-04-27T08:29:39.570Z,-83
2023-04-27T08:32:08.446Z,-83
2023-04-27T08:34:36.980Z,-82
2023-04-27T08:37:05.522Z,-82
2023-04-27T08:39:33.918Z,-83
2023-04-27T08:42:02.317Z,-83
2023-04-27T08:44:31.343Z,-83
2023-04-27T08:47:01.131Z,-83
2023-04-27T08:49:29.521Z,-83
2023-04-27T08:51:59.237Z,-82
2023-04-27T08:54:27.725Z,-84
2023-04-27T08:56:55.991Z,-83
2023-04-27T08:59:24.131Z,-83
2023-04-27T09:01:52.503Z,-84
2023-04-27T09:04:22.680Z,-81
2023-04-27T09:06:51.543Z,-83
2023-04-27T09:09:26.417Z,-80
2023-04-27T09:11:54.527Z,-82
2023-04-27T09:14:24.804Z,-81
2023-04-27T09:16:57.729Z,-81
2023-04-27T09:19:28.820Z,-83
2023-04-27T09:22:08.499Z,-81
2023-04-27T09:27:22.190Z,-82
2023-04-27T09:29:50.341Z,-82
2023-04-27T09:32:20.875Z,-80
2023-04-27T09:34:50.721Z,-83
2023-04-27T09:37:19.058Z,-82
2023-04-27T09:39:48.452Z,-82
2023-04-27T09:42:17.230Z,-81
2023-04-27T09:44:45.407Z,-83
2023-04-27T09:47:15.301Z,-81
2023-04-27T09:49:43.538Z,-82
2023-04-27T09:52:13.598Z,-83
2023-04-27T09:54:42.330Z,-83
2023-04-27T09:57:17.789Z,-82
2023-04-27T09:59:58.514Z,-82
2023-04-27T10:02:29.752Z,-82
2023-04-27T10:05:21.606Z,-81
2023-04-27T10:07:51.383Z,-81
2023-04-27T10:10:20.526Z,-82
2023-04-27T10:12:58.805Z,-84
2023-04-27T10:15:29.780Z,-83
2023-04-27T10:17:59.918Z,-83
2023-04-27T10:20:32.559Z,-82
2023-04-27T10:23:02.520Z,-82
2023-04-27T10:25:34.786Z,-83
2023-04-27T10:28:04.430Z,-81
2023-04-27T10:30:34.694Z,-82
2023-04-27T10:33:07.264Z,-82
2023-04-27T10:35:36.423Z,-83
2023-04-27T10:38:10.093Z,-82
2023-04-27T10:40:38.631Z,-82
2023-04-27T10:43:11.098Z,-83
2023-04-27T10:45:39.681Z,-81
2023-04-27T10:48:08.381Z,-83
2023-04-27T10:50:37.216Z,-82
2023-04-27T10:53:08.826Z,-83
2023-04-27T10:55:37.663Z,-83
2023-04-27T10:58:06.385Z,-81
2023-04-27T11:00:37.736Z,-82
2023-04-27T11:03:14.938Z,-82
2023-04-27T11:05:44.117Z,-81
2023-04-27T11:08:15.495Z,-82
2023-04-27T11:10:46.232Z,-82
2023-04-27T11:13:16.727Z,-81
2023-04-27T11:15:49.273Z,-80
2023-04-27T11:18:18.718Z,-81
2023-04-27T11:20:49.782Z,-81
2023-04-27T11:23:26.754Z,-81
2023-04-27T11:25:56.609Z,-81
2023-04-27T11:28:26.193Z,-82
2023-04-27T11:30:57.952Z,-81
2023-04-27T11:33:26.508Z,-84
2023-04-27T11:35:54.882Z,-83
2023-04-27T11:38:23.468Z,-83
2023-04-27T11:41:08.690Z,-82
2023-04-27T11:43:37.915Z,-82
2023-04-27T11:46:08.584Z,-81
2023-04-27T11:48:38.178Z,-82
2023-04-27T11:51:06.907Z,-78
2023-04-27T11:53:36.744Z,-79
2023-04-27T11:56:08.008Z,-81
2023-04-27T11:58:37.464Z,-80
2023-04-27T12:01:06.181Z,-83
2023-04-27T12:03:35.619Z,-81
2023-04-27T12:06:21.613Z,-82
2023-04-27T12:08:52.582Z,-79
2023-04-27T12:11:22.145Z,-80
2023-04-27T12:13:50.784Z,-80
2023-04-27T12:16:19.230Z,-80
2023-04-27T12:18:47.368Z,-82
2023-04-27T12:21:15.739Z,-81
2023-04-27T12:23:44.125Z,-80
2023-04-27T12:26:15.039Z,-81
2023-04-27T12:28:45.170Z,-81
2023-04-27T12:31:16.877Z,-83
2023-04-27T12:33:45.169Z,-81
2023-04-27T12:36:13.627Z,-81
2023-04-27T12:38:42.002Z,-82
2023-04-27T12:41:10.648Z,-82
2023-04-27T12:43:41.201Z,-82
2023-04-27T12:46:11.551Z,-81
2023-04-27T12:48:40.212Z,-80
2023-04-27T12:51:09.077Z,-80
2023-04-27T12:53:37.978Z,-82
2023-04-27T12:56:07.383Z,-82
2023-04-27T12:58:36.015Z,-79
2023-04-27T13:01:04.066Z,-81
2023-04-27T13:03:34.528Z,-79
2023-04-27T13:06:02.817Z,-79
2023-04-27T13:08:31.132Z,-79
2023-04-27T13:10:59.311Z,-79
2023-04-27T13:13:27.648Z,-81
2023-04-27T13:15:56.527Z,-80
2023-04-27T13:18:24.919Z,-81
2023-04-27T13:20:54.666Z,-82
2023-04-27T13:23:22.964Z,-80
2023-04-27T13:25:51.354Z,-80
2023-04-27T13:28:19.918Z,-80
2023-04-27T13:30:48.991Z,-81
2023-04-27T13:33:23.134Z,-81
2023-04-27T13:35:52.093Z,-82
2023-04-27T13:38:21.719Z,-80
2023-04-27T13:40:50.029Z,-81
2023-04-27T13:43:20.509Z,-81
2023-04-27T13:45:49.649Z,-80
2023-04-27T13:48:18.027Z,-81
2023-04-27T13:50:46.829Z,-83
2023-04-27T13:53:16.802Z,-83
2023-04-27T13:55:46.791Z,-81
2023-04-27T13:58:16.154Z,-82
2023-04-27T14:00:44.804Z,-82
2023-04-27T14:03:13.355Z,-83
2023-04-27T14:05:41.718Z,-82
2023-04-27T14:08:09.971Z,-81
2023-04-27T14:10:38.352Z,-81
2023-04-27T14:13:08.816Z,-83
2023-04-27T14:15:37.594Z,-82
2023-04-27T14:18:07.995Z,-82
2023-04-27T14:20:36.772Z,-81
2023-04-27T14:23:06.250Z,-83
2023-04-27T14:25:35.261Z,-82
2023-04-27T14:28:04.115Z,-83
2023-04-27T14:30:35.005Z,-82
2023-04-27T14:33:03.767Z,-82
2023-04-27T14:35:32.186Z,-82
2023-04-27T14:38:02.583Z,-82
2023-04-27T14:40:31.514Z,-82
2023-04-27T14:43:00.533Z,-80
2023-04-27T14:45:33.836Z,-78
2023-04-27T14:48:07.497Z,-81
2023-04-27T14:50:36.533Z,-81
2023-04-27T14:53:05.209Z,-81
2023-04-27T14:55:33.607Z,-81
2023-04-27T14:58:01.943Z,-81
2023-04-27T15:00:30.215Z,-81
2023-04-27T15:02:58.730Z,-82
2023-04-27T15:05:28.934Z,-80
2023-04-27T15:07:57.450Z,-81
2023-04-27T15:10:25.912Z,-80
2023-04-27T15:12:55.002Z,-82
2023-04-27T15:15:23.582Z,-81
2023-04-27T15:17:51.895Z,-80
2023-04-27T15:20:20.643Z,-83
2023-04-27T15:22:50.662Z,-82
2023-04-27T15:25:19.297Z,-82
2023-04-27T15:27:47.717Z,-82
2023-04-27T15:30:16.565Z,-81
2023-04-27T15:32:45.257Z,-84
2023-04-27T15:35:16.338Z,-80
2023-04-27T15:37:45.078Z,-81
2023-04-27T15:40:15.776Z,-81
2023-04-27T15:42:44.320Z,-80
2023-04-27T15:45:12.922Z,-80
2023-04-27T15:47:41.469Z,-81
2023-04-27T15:50:09.978Z,-80
2023-04-27T15:52:38.340Z,-80
2023-04-27T15:55:07.342Z,-80
2023-04-27T15:57:37.340Z,-81
2023-04-27T16:00:10.164Z,-79
2023-04-27T16:02:39.058Z,-79
2023-04-27T16:05:08.402Z,-81
2023-04-27T16:07:38.274Z,-80
2023-04-27T16:10:08.205Z,-80
2023-04-27T16:12:37.840Z,-82
2023-04-27T16:15:10.077Z,-79
2023-04-27T16:17:39.831Z,-79
2023-04-27T16:20:09.802Z,-78
2023-04-27T16:22:38.776Z,-77
2023-04-27T16:25:10.641Z,-77
2023-04-27T16:27:41.065Z,-78
2023-04-27T16:30:10.483Z,-77
2023-04-27T16:32:39.483Z,-78
2023-04-27T16:35:09.141Z,-78
2023-04-27T16:37:39.199Z,-78
2023-04-27T16:40:09.327Z,-77
2023-04-27T16:42:37.814Z,-78
2023-04-27T16:45:10.961Z,-78
2023-04-27T16:47:39.518Z,-78
2023-04-27T16:50:08.653Z,-78
2023-04-27T16:52:37.072Z,-78
2023-04-27T16:55:06.780Z,-77
2023-04-27T16:57:35.727Z,-77
2023-04-27T17:00:06.178Z,-78
2023-04-27T17:02:36.194Z,-78
2023-04-27T17:05:04.865Z,-78
2023-04-27T17:07:33.443Z,-78
2023-04-27T17:10:02.026Z,-78
2023-04-27T17:12:30.616Z,-78
2023-04-27T17:14:58.975Z,-78
2023-04-27T17:17:27.433Z,-78
2023-04-27T17:19:59.600Z,-78
2023-04-27T17:22:28.488Z,-78
2023-04-27T17:24:56.896Z,-78
2023-04-27T17:27:24.977Z,-79
2023-04-27T17:29:57.711Z,-78
2023-04-27T17:32:26.722Z,-78
2023-04-27T17:34:55.248Z,-78
2023-04-27T17:37:25.377Z,-78
2023-04-27T17:39:54.870Z,-78
2023-04-27T17:42:23.583Z,-79
2023-04-27T17:44:52.137Z,-79
2023-04-27T17:47:28.001Z,-78
2023-04-27T17:49:56.487Z,-78
2023-04-27T17:52:26.718Z,-78
2023-04-27T17:54:55.755Z,-78
2023-04-27T17:57:24.405Z,-78
2023-04-27T17:59:52.924Z,-78
2023-04-27T18:02:22.028Z,-78
2023-04-27T18:04:50.628Z,-78
2023-04-27T18:07:20.261Z,-78
2023-04-27T18:09:50.497Z,-78
2023-04-27T18:12:19.166Z,-78
2023-04-27T18:14:51.127Z,-78
2023-04-27T18:17:19.439Z,-78
2023-04-27T18:19:53.245Z,-78
2023-04-27T18:22:33.896Z,-78
2023-04-27T18:25:03.851Z,-78
2023-04-27T18:27:33.074Z,-78
2023-04-27T18:30:01.817Z,-78
2023-04-27T18:32:30.422Z,-78
2023-04-27T18:34:58.831Z,-78
2023-04-27T18:37:27.252Z,-78
2023-04-27T18:39:55.842Z,-78
2023-04-27T18:42:26.156Z,-78
2023-04-27T18:44:58.124Z,-78
2023-04-27T18:47:27.538Z,-77
2023-04-27T18:49:56.181Z,-78
2023-04-27T18:52:24.978Z,-78
2023-04-27T18:54:54.896Z,-78
2023-04-27T18:57:23.779Z,-78
2023-04-27T18:59:54.728Z,-78
2023-04-27T19:02:22.985Z,-78
2023-04-27T19:05:01.699Z,-78
2023-04-27T19:07:39.131Z,-78
2023-04-27T19:10:09.120Z,-78
2023-04-27T19:12:37.648Z,-78
2023-04-27T19:15:08.192Z,-78
2023-04-27T19:17:36.599Z,-78
2023-04-27T19:20:05.578Z,-78
2023-04-27T19:22:35.054Z,-78
2023-04-27T19:25:03.353Z,-77
2023-04-27T19:27:31.748Z,-78
2023-04-27T19:30:01.056Z,-78
2023-04-27T19:32:31.407Z,-78
2023-04-27T19:35:00.292Z,-78
2023-04-27T19:37:29.079Z,-78
2023-04-27T19:39:57.768Z,-78
2023-04-27T19:42:26.366Z,-78
2023-04-27T19:44:55.760Z,-78
2023-04-27T19:47:25.696Z,-78
2023-04-27T19:49:58.480Z,-78
2023-04-27T19:52:27.421Z,-78
2023-04-27T19:54:56.307Z,-78
2023-04-27T19:57:24.440Z,-78
2023-04-27T19:59:52.943Z,-78
2023-04-27T20:02:21.729Z,-78
2023-04-27T20:04:50.714Z,-78
2023-04-27T20:07:20.924Z,-78
2023-04-27T20:09:49.403Z,-78
2023-04-27T20:12:40.241Z,-78
2023-04-27T20:15:09.832Z,-78
2023-04-27T20:17:38.746Z,-78
2023-04-27T20:20:10.443Z,-78
2023-04-27T20:22:40.950Z,-78
2023-04-27T20:25:10.012Z,-78
2023-04-27T20:27:38.494Z,-78
2023-04-27T20:30:08.257Z,-78
2023-04-27T20:32:36.517Z,-78
2023-04-27T20:35:05.789Z,-78
2023-04-27T20:37:34.625Z,-78
2023-04-27T20:40:07.764Z,-78
2023-04-27T20:42:36.520Z,-78
2023-04-27T20:45:05.877Z,-78
2023-04-27T20:47:34.301Z,-78
2023-04-27T20:50:02.881Z,-78
2023-04-27T20:52:34.417Z,-78
2023-04-27T20:55:04.757Z,-78
2023-04-27T20:57:33.093Z,-78
2023-04-27T21:00:01.288Z,-78
2023-04-27T21:02:29.806Z,-78
2023-04-27T21:04:58.340Z,-77
2023-04-27T21:07:27.056Z,-78
2023-04-27T21:09:55.870Z,-78
2023-04-27T21:12:25.495Z,-78
2023-04-27T21:14:55.100Z,-78
2023-04-27T21:17:23.605Z,-78
2023-04-27T21:19:52.202Z,-78
2023-04-27T21:22:20.764Z,-78
2023-04-27T21:24:49.007Z,-78
2023-04-27T21:27:17.324Z,-79
2023-04-27T21:29:47.109Z,-78
2023-04-27T21:32:15.788Z,-78
2023-04-27T21:34:44.227Z,-78
2023-04-27T21:37:12.873Z,-78
2023-04-27T21:39:41.968Z,-78
2023-04-27T21:42:10.708Z,-78
2023-04-27T21:44:39.034Z,-78
2023-04-27T21:47:08.949Z,-79
2023-04-27T21:49:37.117Z,-91
2023-04-27T21:52:05.452Z,-92
2023-04-27T21:54:33.577Z,-91
2023-04-27T21:57:02.267Z,-92
2023-04-27T21:59:30.505Z,-91
2023-04-27T22:01:59.361Z,-92
